Saint Onge, South Dakota
Current Conditions -  °F | °C
As of 6:55 PM on Saturday 22 Nov 2014 (Local Time) from KSPF Reporting Station
Broken Clouds Broken Clouds  
Wind Chill:   Ceiling: 7000
Heat Index:   Visibility: 10mi
Dew Point: -1°   Wind: 9mph
Humidity: 53%   Direction: 310°NW
Pressure: 29.42"   Gusts: NA
Location:  44.55°N, 103.72°W
Report Text: KSPF 230155Z AUTO 31008KT 040V040 10SM BKN070 BKN120 08/M01 A2942 RMK AO2
Loading
Personal Weather Stations






























Interactive Weather Map New forecast layout! Learn more

10-Day Weather Forecast

Advertisements
Track Severe Weather on mobile